Aviation Digital Data Service (ADDS)

Output produced by METARs form (0236 UTC 18 June 2019)
found at http://www.aviationweather.gov/metar/data/
 
METAR text: RJTC 170012Z 36013G24KT 310V030 9999 FEW030 SCT230 25/07 Q1008 RMK 1CU030 3CI230 A2978
Conditions at: RJTC (TACHIKAWA (JASDF, JP) observed 0012 UTC 17 June 2019
Temperature: 25.0°C (77°F)
Dewpoint: 7.0°C (45°F) [RH = 32%]
Pressure (altimeter): 29.76 inches Hg (1008.0 mb)
Winds: from the N (360 degrees) at 15 MPH (13 knots; 6.7 m/s)
gusting to 28 MPH (24 knots; 12.3 m/s)
Visibility: 6 or more miles (10+ km)
Ceiling: at least 12,000 feet AGL
Clouds: few clouds at 3000 feet AGL
scattered clouds at 23000 feet AGL
Weather: no significant weather observed at this time